KABQ/ABQ METAR and TAF weather

Enter ICAO airport designator
Station Type Date Time Source
KABQ METAR 2018/01/16 08:52 UTC NOAA

KABQ 160852Z 08017G24KT 10SM FEW015 FEW030 SCT230 M04/M09 A3042 RMK AO2 PK WND 09028/0756 SLP298 MTN TOPS OBSC NE-SE T10391094 51013


Station Type Date Time Source
KABQ Decoded METAR 2018/01/16 08:52 UTC NOAA

ALBUQUERQUE INTERNATIONAL AIRPORT, NM, United States (KABQ) 35-02N 106-36W 1618M
Jan 16, 2018 - 03:52 AM EST / 2018.01.16 0852 UTC
Wind: from the E (080 degrees) at 20 MPH (17 KT) gusting to 28 MPH (24 KT):0
Visibility: 10 mile(s):0
Sky conditions: partly cloudy
Temperature: 25.0 F (-3.9 C)
Windchill: 10 F (-12 C):1
Dew Point: 15.1 F (-9.4 C)
Relative Humidity: 65%
Pressure (altimeter): 30.42 in. Hg (1030 hPa)
Pressure tendency: 0.04 inches (1.3 hPa) higher than three hours ago
ob: KABQ 160852Z 08017G24KT 10SM FEW015 FEW030 SCT230 M04/M09 A3042 RMK AO2 PK WND 09028/0756 SLP298 MTN TOPS OBSC NE-SE T10391094 51013
cycle: 9

Station Type Date Time Source
KABQ TAF 2018/01/16 06:36 UTC NOAA

TAF KABQ 160532Z 1606/1706 09022G35KT P6SM BKN050
FM161400 08010G20KT P6SM OVC050
FM161700 10010KT P6SM SCT050
FM162200 12007KT P6SM FEW050


Example: see airport list